Port Kent, New York
Current Conditions -  °F | °C
As of 4:53 AM on Monday 20 Oct 2014 (Local Time) from KPBG Reporting Station
Clear Clear  
Wind Chill: 30°   Ceiling: Unl
Heat Index: 30°   Visibility: 10mi
Dew Point: 28°   Wind: 3mph
Humidity: 92%   Direction: 250°WSW
Pressure: 30"   Gusts: NA
Location:  44.53°N, 73.41°W
Report Text: KPBG 200853Z AUTO 25003KT 10SM CLR M01/M02 A3000 RMK AO2 SLP162 T10111022 53002
Loading
Personal Weather Stations






























Interactive Weather Map
Tropical Storm Tracking
New forecast layout! Learn more

10-Day Weather Forecast

Advertisements
Track Severe Weather on mobile